createdAt,value
2022-12-17T00:01:44.591Z,1.75
2022-12-17T00:05:06.595Z,1.58
2022-12-17T00:08:37.529Z,1.67
2022-12-17T00:12:12.765Z,1.60
2022-12-17T00:15:48.614Z,1.51
2022-12-17T00:19:29.780Z,1.43
2022-12-17T00:23:19.761Z,1.46
2022-12-17T00:26:44.994Z,1.29
2022-12-17T00:30:09.820Z,1.49
2022-12-17T00:33:32.662Z,1.21
2022-12-17T00:36:54.882Z,1.49
2022-12-17T00:40:21.018Z,1.42
2022-12-17T00:43:45.696Z,1.23
2022-12-17T00:47:08.005Z,1.27
2022-12-17T00:50:30.702Z,1.08
2022-12-17T00:53:52.757Z,1.29
2022-12-17T00:57:14.672Z,1.20
2022-12-17T01:00:37.907Z,1.30
2022-12-17T01:04:09.660Z,1.20
2022-12-17T01:07:31.939Z,1.26
2022-12-17T01:10:59.565Z,1.31
2022-12-17T01:14:21.094Z,1.46
2022-12-17T01:17:48.543Z,1.34
2022-12-17T01:21:27.524Z,1.36
2022-12-17T01:24:59.719Z,1.42
2022-12-17T01:28:22.304Z,1.36
2022-12-17T01:31:44.830Z,1.34
2022-12-17T01:35:06.467Z,1.45
2022-12-17T01:38:37.898Z,1.43
2022-12-17T01:42:03.413Z,1.41
2022-12-17T01:45:33.078Z,1.26
2022-12-17T01:49:14.396Z,1.27
2022-12-17T01:52:36.095Z,1.35
2022-12-17T01:56:10.485Z,1.03
2022-12-17T02:00:10.414Z,1.12
2022-12-17T02:03:45.245Z,1.17
2022-12-17T02:07:16.238Z,1.15
2022-12-17T02:11:02.396Z,1.01
2022-12-17T02:14:26.283Z,1.07
2022-12-17T02:18:08.741Z,1.05
2022-12-17T02:21:31.251Z,0.99
2022-12-17T02:25:14.549Z,1.08
2022-12-17T02:28:55.365Z,1.10
2022-12-17T02:32:27.079Z,0.96
2022-12-17T02:35:53.706Z,0.91
2022-12-17T02:39:18.782Z,1.03
2022-12-17T02:42:46.912Z,1.02
2022-12-17T02:46:08.842Z,0.93
2022-12-17T02:49:37.159Z,0.90
2022-12-17T02:53:13.864Z,0.94
2022-12-17T02:56:52.080Z,0.92
2022-12-17T03:00:18.041Z,1.00
2022-12-17T03:03:40.301Z,0.83
2022-12-17T03:07:03.462Z,1.07
2022-12-17T03:10:30.830Z,0.90
2022-12-17T03:13:52.824Z,0.90
2022-12-17T03:17:14.812Z,1.09
2022-12-17T03:20:37.129Z,0.98
2022-12-17T03:23:59.141Z,0.96
2022-12-17T03:27:25.268Z,0.86
2022-12-17T03:30:50.907Z,1.02
2022-12-17T03:34:12.788Z,0.68
2022-12-17T03:37:57.020Z,0.68
2022-12-17T03:41:22.252Z,0.75
2022-12-17T03:45:03.033Z,0.72
2022-12-17T03:48:38.599Z,0.64
2022-12-17T03:52:14.920Z,0.71
2022-12-17T03:55:53.233Z,0.67
2022-12-17T03:59:18.962Z,0.60
2022-12-17T04:02:41.104Z,0.52
2022-12-17T04:06:03.113Z,0.30
2022-12-17T04:09:29.287Z,0.29
2022-12-17T04:12:51.998Z,0.44
2022-12-17T04:16:14.225Z,0.20
2022-12-17T04:19:39.181Z,0.22
2022-12-17T04:23:04.432Z,0.16
2022-12-17T04:26:28.913Z,0.17
2022-12-17T04:29:53.859Z,0.07
2022-12-17T04:33:15.645Z,0.10
2022-12-17T04:36:40.203Z,0.02
2022-12-17T04:40:18.482Z,0.11
2022-12-17T04:43:55.916Z,0.15
2022-12-17T04:47:21.471Z,0.10
2022-12-17T04:50:43.363Z,0.16
2022-12-17T04:54:08.393Z,0.20
2022-12-17T04:57:30.851Z,0.09
2022-12-17T05:00:52.373Z,0.11
2022-12-17T05:04:15.428Z,0.18
2022-12-17T05:07:37.478Z,0.08
2022-12-17T05:11:00.149Z,-0.11
2022-12-17T05:14:25.840Z,0.20
2022-12-17T05:17:51.761Z,0.05
2022-12-17T05:21:13.487Z,0.01
2022-12-17T05:24:39.446Z,0.05
2022-12-17T05:28:01.561Z,0.07
2022-12-17T05:31:23.541Z,-0.03
2022-12-17T05:34:45.555Z,-0.26
2022-12-17T05:38:11.835Z,-0.13
2022-12-17T05:41:33.706Z,-0.09
2022-12-17T05:44:55.743Z,-0.25
2022-12-17T05:48:17.948Z,-0.20
2022-12-17T05:51:41.881Z,-0.13
2022-12-17T05:55:04.086Z,-0.41
2022-12-17T05:58:29.826Z,-0.17
2022-12-17T06:01:54.832Z,-0.31
2022-12-17T06:05:27.308Z,-0.19
2022-12-17T06:08:52.178Z,-0.15
2022-12-17T06:12:32.659Z,-0.11
2022-12-17T06:16:27.765Z,-0.16
2022-12-17T06:20:02.589Z,-0.17
2022-12-17T06:23:36.015Z,-0.13
2022-12-17T06:27:00.928Z,-0.36
2022-12-17T06:30:24.212Z,-0.20
2022-12-17T06:33:45.575Z,-0.20
2022-12-17T06:37:08.012Z,-0.25
2022-12-17T06:40:32.719Z,-0.32
2022-12-17T06:43:54.930Z,-0.22
2022-12-17T06:47:20.143Z,-0.21
2022-12-17T06:50:49.502Z,-0.09
2022-12-17T06:54:12.090Z,-0.22
2022-12-17T06:57:50.477Z,-0.24
2022-12-17T07:01:18.944Z,-0.28
2022-12-17T07:04:51.916Z,-0.25
2022-12-17T07:08:19.306Z,-0.19
2022-12-17T07:11:41.508Z,-0.29
2022-12-17T07:15:07.578Z,-0.21
2022-12-17T07:18:34.186Z,-0.35
2022-12-17T07:21:56.697Z,-0.26
2022-12-17T07:25:22.017Z,-0.31
2022-12-17T07:28:44.608Z,-0.24
2022-12-17T07:32:11.144Z,-0.21
2022-12-17T07:35:33.158Z,-0.20
2022-12-17T07:38:55.072Z,-0.26
2022-12-17T07:42:29.375Z,-0.33
2022-12-17T07:45:54.529Z,-0.19
2022-12-17T07:49:25.356Z,-0.09
2022-12-17T07:52:59.101Z,0.02
2022-12-17T07:56:26.597Z,-0.17
2022-12-17T07:59:48.724Z,-0.03
2022-12-17T08:03:33.462Z,-0.14
2022-12-17T08:07:14.288Z,-0.08
2022-12-17T08:10:40.479Z,0.03
2022-12-17T08:14:02.641Z,0.04
2022-12-17T08:17:24.697Z,0.16
2022-12-17T08:20:46.583Z,0.18
2022-12-17T08:24:12.286Z,0.04
2022-12-17T08:27:48.005Z,0.31
2022-12-17T08:31:10.306Z,0.13
2022-12-17T08:34:32.830Z,0.17
2022-12-17T08:37:57.336Z,0.24
2022-12-17T08:41:19.826Z,0.43
2022-12-17T08:44:41.468Z,0.43
2022-12-17T08:48:04.389Z,0.62
2022-12-17T08:51:43.975Z,0.54
2022-12-17T08:55:18.187Z,0.26
2022-12-17T08:58:59.315Z,0.59
2022-12-17T09:02:27.434Z,0.51
2022-12-17T09:05:49.512Z,0.39
2022-12-17T09:09:11.501Z,0.34
2022-12-17T09:12:32.828Z,0.23
2022-12-17T09:15:54.883Z,0.26
2022-12-17T09:19:18.578Z,0.39
2022-12-17T09:22:40.787Z,0.21
2022-12-17T09:26:03.136Z,0.28
2022-12-17T09:29:31.427Z,0.15
2022-12-17T09:32:56.389Z,0.08
2022-12-17T09:36:29.129Z,0.04
2022-12-17T09:39:56.882Z,0.35
2022-12-17T09:43:52.068Z,0.42
2022-12-17T09:47:32.215Z,0.52
2022-12-17T09:50:53.782Z,0.20
2022-12-17T09:54:42.335Z,0.44
2022-12-17T09:58:09.434Z,0.30
2022-12-17T10:01:41.504Z,0.38
2022-12-17T10:05:15.816Z,0.34
2022-12-17T10:08:52.237Z,0.41
2022-12-17T10:12:16.649Z,0.35
2022-12-17T10:15:58.140Z,0.44
2022-12-17T10:19:58.021Z,0.34
2022-12-17T10:23:20.195Z,0.28
2022-12-17T10:26:49.060Z,0.52
2022-12-17T10:30:14.214Z,0.42
2022-12-17T10:33:56.167Z,0.30
2022-12-17T10:37:43.767Z,0.39
2022-12-17T10:41:19.105Z,0.73
2022-12-17T10:45:02.912Z,0.71
2022-12-17T10:48:59.061Z,0.79
2022-12-17T10:52:48.421Z,0.71
2022-12-17T10:56:15.171Z,0.52
2022-12-17T10:59:57.407Z,0.92
2022-12-17T11:03:18.515Z,0.92
2022-12-17T11:06:55.836Z,0.96
2022-12-17T11:10:21.490Z,1.10
2022-12-17T11:14:03.547Z,1.01
2022-12-17T11:17:32.312Z,1.03
2022-12-17T11:21:16.767Z,1.05
2022-12-17T11:24:46.671Z,1.19
2022-12-17T11:28:17.760Z,1.22
2022-12-17T11:32:04.337Z,1.66
2022-12-17T11:35:39.301Z,1.67
2022-12-17T11:39:14.759Z,1.55
2022-12-17T11:42:58.838Z,1.39
2022-12-17T11:46:43.428Z,1.39
2022-12-17T11:50:20.981Z,1.38
2022-12-17T11:53:54.687Z,1.21
2022-12-17T11:57:39.248Z,1.34
2022-12-17T12:01:25.497Z,1.41
2022-12-17T12:05:31.695Z,1.51
2022-12-17T12:09:11.113Z,1.26
2022-12-17T12:12:48.590Z,1.04
2022-12-17T12:16:31.749Z,1.30
2022-12-17T12:20:27.434Z,0.93
2022-12-17T12:24:32.093Z,1.05
2022-12-17T12:28:08.574Z,0.98
2022-12-17T12:32:08.659Z,1.05
2022-12-17T12:35:37.869Z,0.91
2022-12-17T12:39:03.931Z,1.21
2022-12-17T12:42:44.127Z,0.90
2022-12-17T12:46:28.237Z,1.02
2022-12-17T12:49:54.333Z,1.09
2022-12-17T12:53:18.508Z,1.14
2022-12-17T12:56:52.847Z,1.32
2022-12-17T13:00:28.583Z,1.47
2022-12-17T13:04:08.087Z,1.03
2022-12-17T13:07:29.024Z,1.06
2022-12-17T13:10:36.544Z,0.95
2022-12-17T13:13:58.791Z,0.85
2022-12-17T13:17:04.500Z,0.75
2022-12-17T13:20:30.651Z,0.84
2022-12-17T13:23:50.529Z,0.98
2022-12-17T13:26:57.644Z,0.84
2022-12-17T13:30:23.048Z,0.67
2022-12-17T13:33:44.164Z,0.79
2022-12-17T13:36:53.696Z,0.90
2022-12-17T13:40:21.453Z,0.97
2022-12-17T13:43:33.237Z,1.07
2022-12-17T13:46:53.161Z,0.88
2022-12-17T13:50:38.596Z,0.73
2022-12-17T13:53:52.984Z,0.83
2022-12-17T13:57:16.667Z,0.69
2022-12-17T14:00:26.802Z,0.60
2022-12-17T14:04:04.719Z,0.71
2022-12-17T14:07:10.511Z,0.51
2022-12-17T14:10:31.176Z,0.70
2022-12-17T14:13:49.385Z,0.35
2022-12-17T14:16:53.033Z,0.25
2022-12-17T14:20:21.391Z,0.29
2022-12-17T14:23:59.320Z,0.15
2022-12-17T14:27:30.444Z,0.20
2022-12-17T14:31:17.737Z,0.42
2022-12-17T14:34:12.580Z,0.17
2022-12-17T14:37:28.258Z,0.20
2022-12-17T14:40:51.328Z,0.34
2022-12-17T14:44:18.564Z,0.28
2022-12-17T14:47:39.340Z,0.12
2022-12-17T14:50:59.303Z,0.26
2022-12-17T14:54:33.348Z,0.18
2022-12-17T14:57:39.570Z,0.32
2022-12-17T15:01:13.588Z,0.06
2022-12-17T15:04:27.542Z,0.23
2022-12-17T15:07:47.288Z,0.18
2022-12-17T15:11:10.276Z,0.13
2022-12-17T15:14:27.478Z,0.12
2022-12-17T15:17:30.495Z,0.12
2022-12-17T15:20:34.213Z,0.04
2022-12-17T15:23:53.789Z,0.13
2022-12-17T15:27:03.738Z,0.18
2022-12-17T15:30:17.602Z,0.23
2022-12-17T15:33:26.592Z,0.22
2022-12-17T15:36:32.677Z,0.01
2022-12-17T15:39:38.599Z,0.02
2022-12-17T15:43:06.145Z,-0.14
2022-12-17T15:46:19.299Z,-0.08
2022-12-17T15:49:26.183Z,-0.13
2022-12-17T15:52:33.359Z,-0.18
2022-12-17T15:55:42.843Z,-0.08
2022-12-17T15:58:52.748Z,-0.20
2022-12-17T16:02:03.618Z,-0.13
2022-12-17T16:05:07.335Z,-0.18
2022-12-17T16:08:10.528Z,-0.14
2022-12-17T16:11:15.497Z,-0.27
2022-12-17T16:14:28.969Z,-0.20
2022-12-17T16:17:32.055Z,-0.19
2022-12-17T16:20:36.605Z,-0.17
2022-12-17T16:23:53.124Z,-0.27
2022-12-17T16:27:09.962Z,-0.25
2022-12-17T16:30:27.206Z,-0.34
2022-12-17T16:33:39.410Z,-0.21
2022-12-17T16:36:45.661Z,-0.29
2022-12-17T16:39:52.901Z,-0.32
2022-12-17T16:43:10.543Z,-0.38
2022-12-17T16:47:06.257Z,-0.34
2022-12-17T16:50:41.839Z,-0.32
2022-12-17T16:54:15.599Z,-0.38
2022-12-17T16:57:28.459Z,-0.41
2022-12-17T17:00:50.852Z,-0.36
2022-12-17T17:04:13.370Z,-0.37
2022-12-17T17:07:30.128Z,-0.34
2022-12-17T17:10:57.879Z,-0.40
2022-12-17T17:14:22.614Z,-0.45
2022-12-17T17:17:55.661Z,-0.45
2022-12-17T17:21:01.835Z,-0.47
2022-12-17T17:24:30.502Z,-0.40
2022-12-17T17:27:52.431Z,-0.45
2022-12-17T17:31:15.441Z,-0.52
2022-12-17T17:34:37.404Z,-0.55
2022-12-17T17:37:55.506Z,-0.56
2022-12-17T17:41:15.757Z,-0.53
2022-12-17T17:44:35.832Z,-0.50
2022-12-17T17:47:58.802Z,-0.51
2022-12-17T17:51:38.960Z,-0.57
2022-12-17T17:54:54.321Z,-0.53
2022-12-17T17:58:14.612Z,-0.62
2022-12-17T18:01:34.666Z,-0.46
2022-12-17T18:04:57.663Z,-0.54
2022-12-17T18:08:20.664Z,-0.51
2022-12-17T18:11:43.587Z,-0.53
2022-12-17T18:15:14.170Z,-0.54
2022-12-17T18:18:29.698Z,-0.55
2022-12-17T18:21:50.462Z,-0.53
2022-12-17T18:25:13.670Z,-0.63
2022-12-17T18:28:34.942Z,-0.54
2022-12-17T18:31:55.498Z,-0.58
2022-12-17T18:35:18.672Z,-0.61
2022-12-17T18:38:41.485Z,-0.66
2022-12-17T18:42:20.679Z,-0.62
2022-12-17T18:45:30.793Z,-0.69
2022-12-17T18:48:49.624Z,-0.70
2022-12-17T18:52:16.777Z,-0.81
2022-12-17T18:55:35.608Z,-0.78
2022-12-17T18:58:58.552Z,-0.74
2022-12-17T19:02:18.979Z,-0.81
2022-12-17T19:05:45.813Z,-0.73
2022-12-17T19:09:00.460Z,-0.88
2022-12-17T19:12:20.458Z,-0.76
2022-12-17T19:15:43.511Z,-0.79
2022-12-17T19:19:05.766Z,-0.78
2022-12-17T19:22:26.438Z,-0.79
2022-12-17T19:25:46.824Z,-0.81
2022-12-17T19:29:09.475Z,-0.81
2022-12-17T19:32:29.588Z,-0.80
2022-12-17T19:35:52.515Z,-0.80
2022-12-17T19:39:14.754Z,-0.84
2022-12-17T19:42:30.664Z,-0.85
2022-12-17T19:46:02.597Z,-0.88
2022-12-17T19:49:20.749Z,-0.91
2022-12-17T19:52:33.601Z,-0.88
2022-12-17T19:55:40.666Z,-0.94
2022-12-17T19:58:56.324Z,-1.01
2022-12-17T20:02:12.455Z,-0.93
2022-12-17T20:05:22.116Z,-0.97
2022-12-17T20:08:40.638Z,-1.00
2022-12-17T20:12:16.301Z,-1.03
2022-12-17T20:15:42.134Z,-1.06
2022-12-17T20:18:52.149Z,-1.06
2022-12-17T20:22:17.255Z,-1.05
2022-12-17T20:25:33.269Z,-1.16
2022-12-17T20:28:56.474Z,-1.05
2022-12-17T20:32:25.415Z,-1.12
2022-12-17T20:35:46.237Z,-1.11
2022-12-17T20:39:20.685Z,-1.03
2022-12-17T20:42:41.301Z,-1.21
2022-12-17T20:45:58.354Z,-1.11
2022-12-17T20:49:17.058Z,-1.23
2022-12-17T20:52:40.221Z,-1.16
2022-12-17T20:56:13.169Z,-1.16
2022-12-17T20:59:29.315Z,-1.18
2022-12-17T21:02:50.412Z,-1.21
2022-12-17T21:06:19.133Z,-1.15
2022-12-17T21:09:39.124Z,-1.22
2022-12-17T21:13:10.107Z,-1.24
2022-12-17T21:16:26.392Z,-1.25
2022-12-17T21:19:39.315Z,-1.19
2022-12-17T21:23:02.075Z,-1.24
2022-12-17T21:26:27.302Z,-1.19
2022-12-17T21:29:47.146Z,-1.22
2022-12-17T21:33:07.143Z,-1.21
2022-12-17T21:36:19.258Z,-1.26
2022-12-17T21:39:26.299Z,-1.28
2022-12-17T21:42:47.677Z,-1.22
2022-12-17T21:45:57.837Z,-1.28
2022-12-17T21:49:07.516Z,-1.28
2022-12-17T21:52:31.029Z,-1.46
2022-12-17T21:56:05.969Z,-1.38
2022-12-17T21:59:27.881Z,-1.36
2022-12-17T22:02:48.935Z,-1.39
2022-12-17T22:06:10.970Z,-1.30
2022-12-17T22:09:26.328Z,-1.33
2022-12-17T22:13:04.956Z,-1.44
2022-12-17T22:16:18.981Z,-1.37
2022-12-17T22:19:35.050Z,-1.33
2022-12-17T22:22:49.605Z,-1.40
2022-12-17T22:26:06.033Z,-1.47
2022-12-17T22:29:51.772Z,-1.46
2022-12-17T22:33:18.109Z,-1.59
2022-12-17T22:38:11.795Z,-1.58
2022-12-17T22:44:29.144Z,-1.49
2022-12-17T22:44:36.108Z,-1.65
2022-12-17T22:46:58.230Z,-1.74
2022-12-17T22:50:05.943Z,-1.83
2022-12-17T22:53:22.105Z,-1.79
2022-12-17T22:57:18.057Z,-1.70
2022-12-17T23:00:24.054Z,-1.67
2022-12-17T23:03:34.021Z,-1.77
2022-12-17T23:06:54.749Z,-1.71
2022-12-17T23:10:15.831Z,-1.70
2022-12-17T23:13:31.982Z,-1.67
2022-12-17T23:16:54.879Z,-1.78
2022-12-17T23:20:18.768Z,-1.69
2022-12-17T23:23:42.186Z,-1.88
2022-12-17T23:27:01.709Z,-1.74
2022-12-17T23:30:25.762Z,-1.79
2022-12-17T23:33:43.993Z,-1.73
2022-12-17T23:36:46.829Z,-1.71
2022-12-17T23:39:53.739Z,-1.67
2022-12-17T23:42:57.542Z,-1.71
2022-12-17T23:46:22.765Z,-1.91
2022-12-17T23:49:33.189Z,-1.76
2022-12-17T23:52:37.656Z,-1.87
2022-12-17T23:55:44.108Z,-1.80
2022-12-17T23:58:56.791Z,-1.81
